Terminal Aerodrome Forecast
Issued by NWS Buffalo, NY

Home | Current Version | Previous Version | Text Only | Print | Product List | Glossary On
Versions: 1 2 3 4 5 6 7 8 9 10 11 12 13 14 15 16 17 18 19 20 21 22 23 24
000
FTUS41 KBUF 011741
TAFROC
TAF
KROC 011741Z 0118/0218 24016G30KT P6SM BKN040
     FM012000 24017G30KT 6SM -TSRA BKN040CB
     FM012300 24023G38KT P6SM SCT040
     FM020100 24026G50KT P6SM SCT040
     FM020500 25023G38KT P6SM BKN040
     FM021300 28022G34KT P6SM OVC035=

USA.gov is the U.S. government's official web portal to all federal, state and local government web resources and services.